createdAt,value
2019-04-04T00:02:26.569Z,7.19
2019-04-04T00:05:15.389Z,7.10
2019-04-04T00:08:04.314Z,7.06
2019-04-04T00:10:53.128Z,7.32
2019-04-04T00:13:42.592Z,7.25
2019-04-04T00:16:32.512Z,7.20
2019-04-04T00:19:21.424Z,7.38
2019-04-04T00:22:10.247Z,7.33
2019-04-04T00:24:59.116Z,7.25
2019-04-04T00:27:47.929Z,7.14
2019-04-04T00:30:36.772Z,7.17
2019-04-04T00:33:26.265Z,7.13
2019-04-04T00:36:16.180Z,7.26
2019-04-04T00:39:25.887Z,7.18
2019-04-04T00:42:16.723Z,6.99
2019-04-04T00:45:28.727Z,7.08
2019-04-04T00:48:16.725Z,7.04
2019-04-04T00:51:07.735Z,7.12
2019-04-04T00:53:56.193Z,7.24
2019-04-04T00:56:45.029Z,6.99
2019-04-04T00:59:33.885Z,7.13
2019-04-04T01:02:15.990Z,7.25
2019-04-04T01:05:25.707Z,7.11
2019-04-04T01:08:14.537Z,7.05
2019-04-04T01:11:03.349Z,6.94
2019-04-04T01:13:52.188Z,7.27
2019-04-04T01:16:41.043Z,7.05
2019-04-04T01:19:29.840Z,6.84
2019-04-04T01:22:18.681Z,6.78
2019-04-04T01:28:22.493Z,6.77
2019-04-04T01:31:14.638Z,6.67
2019-04-04T01:34:01.935Z,6.69
2019-04-04T01:36:50.760Z,6.67
2019-04-04T01:39:39.612Z,6.47
2019-04-04T01:42:28.446Z,6.51
2019-04-04T01:45:17.265Z,6.39
2019-04-04T01:48:06.162Z,6.24
2019-04-04T01:50:55.025Z,6.18
2019-04-04T01:53:24.510Z,6.18
2019-04-04T01:56:13.365Z,6.19
2019-04-04T01:59:02.184Z,6.11
2019-04-04T02:01:51.029Z,6.08
2019-04-04T02:04:32.313Z,6.10
2019-04-04T02:07:01.900Z,6.22
2019-04-04T02:09:50.724Z,6.11
2019-04-04T02:12:39.539Z,6.10
2019-04-04T02:15:28.478Z,6.13
2019-04-04T02:18:17.314Z,6.08
2019-04-04T02:21:06.147Z,6.01
2019-04-04T02:23:54.988Z,5.91
2019-04-04T02:26:43.822Z,5.79
2019-04-04T02:29:32.633Z,5.68
2019-04-04T02:35:21.202Z,5.63
2019-04-04T02:38:10.017Z,5.65
2019-04-04T02:40:58.929Z,5.60
2019-04-04T02:43:47.748Z,5.57
2019-04-04T02:46:36.651Z,5.50
2019-04-04T02:49:28.105Z,5.50
2019-04-04T02:52:16.013Z,5.60
2019-04-04T02:58:20.187Z,5.75
2019-04-04T03:01:08.982Z,5.79
2019-04-04T03:03:50.856Z,5.87
2019-04-04T03:06:39.751Z,5.89
2019-04-04T03:09:28.596Z,5.98
2019-04-04T03:12:17.437Z,6.03
2019-04-04T03:15:27.163Z,6.02
2019-04-04T03:18:16.062Z,5.98
2019-04-04T03:21:04.984Z,6.03
2019-04-04T03:23:53.592Z,6.00
2019-04-04T03:26:42.458Z,5.99
2019-04-04T03:29:31.264Z,6.04
2019-04-04T03:32:20.111Z,6.05
2019-04-04T03:38:24.139Z,6.12
2019-04-04T03:41:13.005Z,6.05
2019-04-04T03:44:01.841Z,6.09
2019-04-04T03:46:50.757Z,6.09
2019-04-04T03:49:39.602Z,6.08
2019-04-04T03:52:28.439Z,6.11
2019-04-04T03:55:17.242Z,6.13
2019-04-04T03:58:06.108Z,6.09
2019-04-04T04:00:54.997Z,6.13
2019-04-04T04:03:36.873Z,6.14
2019-04-04T04:06:25.693Z,6.09
2019-04-04T04:09:14.537Z,6.10
2019-04-04T04:12:03.429Z,6.05
2019-04-04T04:14:54.757Z,6.18
2019-04-04T04:17:45.664Z,6.13
2019-04-04T04:20:36.195Z,6.14
2019-04-04T04:23:24.318Z,6.11
2019-04-04T04:26:14.473Z,6.07
2019-04-04T04:29:03.304Z,6.10
2019-04-04T04:31:52.130Z,6.09
2019-04-04T04:34:41.009Z,5.96
2019-04-04T04:37:29.849Z,5.95
2019-04-04T04:40:18.699Z,5.92
2019-04-04T04:43:26.563Z,5.84
2019-04-04T04:46:17.800Z,5.76
2019-04-04T04:49:05.946Z,5.63
2019-04-04T04:51:54.779Z,5.64
2019-04-04T04:54:43.625Z,5.65
2019-04-04T04:57:34.412Z,5.71
2019-04-04T05:00:23.105Z,5.78
2019-04-04T05:03:12.014Z,5.85
2019-04-04T05:05:53.793Z,5.95
2019-04-04T05:08:42.667Z,6.00
2019-04-04T05:11:51.006Z,5.95
2019-04-04T05:14:39.843Z,6.00
2019-04-04T05:17:28.673Z,5.99
2019-04-04T05:20:17.637Z,6.03
2019-04-04T05:23:06.487Z,6.09
2019-04-04T05:25:55.316Z,6.06
2019-04-04T05:28:44.149Z,6.08
2019-04-04T05:31:33.092Z,6.21
2019-04-04T05:34:21.955Z,6.36
2019-04-04T05:40:18.649Z,6.32
2019-04-04T05:43:07.475Z,6.26
2019-04-04T05:45:56.349Z,6.32
2019-04-04T05:48:45.182Z,6.37
2019-04-04T05:51:36.185Z,6.46
2019-04-04T05:54:24.560Z,6.40
2019-04-04T05:57:13.415Z,6.41
2019-04-04T06:00:02.231Z,6.71
2019-04-04T06:02:51.069Z,6.76
2019-04-04T06:05:33.516Z,6.71
2019-04-04T06:08:22.924Z,6.73
2019-04-04T06:11:11.748Z,6.84
2019-04-04T06:14:00.615Z,6.86
2019-04-04T06:16:49.412Z,6.82
2019-04-04T06:19:38.243Z,6.86
2019-04-04T06:22:27.049Z,7.13
2019-04-04T06:25:15.893Z,7.10
2019-04-04T06:28:04.870Z,7.31
2019-04-04T06:30:54.322Z,7.38
2019-04-04T06:33:44.263Z,7.89
2019-04-04T06:36:33.074Z,7.98
2019-04-04T06:39:23.019Z,8.00
2019-04-04T06:42:12.454Z,8.00
2019-04-04T06:45:01.305Z,7.81
2019-04-04T06:47:50.129Z,7.67
2019-04-04T06:50:42.763Z,7.79
2019-04-04T06:53:29.581Z,7.64
2019-04-04T06:56:18.396Z,7.86
2019-04-04T06:59:07.254Z,7.98
2019-04-04T07:01:56.076Z,7.86
2019-04-04T07:04:37.506Z,7.98
2019-04-04T07:07:26.316Z,8.22
2019-04-04T07:13:21.453Z,8.57
2019-04-04T07:16:07.023Z,8.60
2019-04-04T07:19:14.272Z,8.98
2019-04-04T07:22:01.728Z,9.29
2019-04-04T07:24:50.701Z,9.67
2019-04-04T07:27:39.588Z,9.47
2019-04-04T07:30:29.311Z,9.47
2019-04-04T07:33:21.368Z,9.59
2019-04-04T07:36:09.591Z,9.77
2019-04-04T07:39:00.322Z,9.70
2019-04-04T07:42:08.051Z,9.53
2019-04-04T07:44:56.890Z,9.58
2019-04-04T07:47:47.485Z,9.38
2019-04-04T07:50:36.314Z,9.81
2019-04-04T07:53:28.067Z,9.79
2019-04-04T07:56:15.720Z,9.77
2019-04-04T07:59:04.612Z,9.73
2019-04-04T08:01:53.458Z,9.46
2019-04-04T08:07:50.634Z,8.91
2019-04-04T08:10:39.528Z,9.04
2019-04-04T08:13:28.369Z,9.12
2019-04-04T08:16:17.192Z,9.10
2019-04-04T08:19:06.043Z,9.02
2019-04-04T08:21:54.855Z,8.83
2019-04-04T08:24:43.707Z,8.91
2019-04-04T08:27:32.526Z,8.81
2019-04-04T08:30:21.364Z,8.81
2019-04-04T08:39:34.487Z,8.91
2019-04-04T08:42:23.298Z,9.02
2019-04-04T08:45:12.206Z,8.97
2019-04-04T08:48:01.018Z,8.91
2019-04-04T08:50:49.939Z,8.92
2019-04-04T08:53:40.207Z,8.94
2019-04-04T08:56:29.330Z,8.97
2019-04-04T08:59:18.178Z,9.09
2019-04-04T09:05:14.748Z,9.18
2019-04-04T09:08:03.582Z,9.39
2019-04-04T09:10:52.498Z,9.74
2019-04-04T09:13:41.426Z,9.41
2019-04-04T09:16:30.239Z,9.49
2019-04-04T09:19:19.079Z,9.61
2019-04-04T09:22:10.823Z,9.14
2019-04-04T09:24:58.547Z,9.24
2019-04-04T09:27:47.426Z,9.46
2019-04-04T09:30:36.242Z,9.56
2019-04-04T09:33:25.161Z,9.60
2019-04-04T09:36:13.998Z,9.65
2019-04-04T09:39:02.992Z,9.67
2019-04-04T09:41:51.887Z,9.77
2019-04-04T09:44:40.720Z,9.32
2019-04-04T09:47:29.605Z,9.47
2019-04-04T09:50:18.449Z,9.52
2019-04-04T09:53:07.280Z,10.08
2019-04-04T09:55:56.135Z,10.00
2019-04-04T09:58:45.043Z,9.93
2019-04-04T10:01:33.865Z,9.64
2019-04-04T10:04:22.724Z,9.52
2019-04-04T10:07:04.710Z,9.29
2019-04-04T10:09:53.584Z,9.52
2019-04-04T10:12:42.436Z,9.89
2019-04-04T10:15:31.263Z,10.22
2019-04-04T10:18:20.111Z,9.99
2019-04-04T10:21:12.144Z,10.35
2019-04-04T10:23:59.565Z,10.60
2019-04-04T10:26:48.418Z,10.67
2019-04-04T10:29:37.291Z,10.21
2019-04-04T10:32:26.118Z,10.01
2019-04-04T10:35:15.014Z,10.07
2019-04-04T10:38:03.920Z,9.86
2019-04-04T10:40:52.781Z,9.33
2019-04-04T10:43:41.612Z,9.57
2019-04-04T10:46:30.475Z,9.35
2019-04-04T10:49:19.321Z,9.21
2019-04-04T10:52:08.255Z,9.03
2019-04-04T10:54:57.096Z,9.24
2019-04-04T10:57:45.928Z,9.24
2019-04-04T11:00:34.794Z,9.66
2019-04-04T11:03:23.608Z,9.68
2019-04-04T11:06:05.484Z,9.78
2019-04-04T11:08:54.310Z,9.77
2019-04-04T11:11:43.167Z,9.90
2019-04-04T11:14:31.773Z,10.06
2019-04-04T11:17:20.623Z,9.93
2019-04-04T11:20:09.629Z,9.74
2019-04-04T11:22:58.452Z,9.58
2019-04-04T11:25:47.344Z,9.76
2019-04-04T11:28:36.187Z,9.60
2019-04-04T11:31:25.028Z,9.46
2019-04-04T11:34:13.868Z,9.50
2019-04-04T11:37:02.796Z,9.69
2019-04-04T11:39:54.875Z,9.73
2019-04-04T11:42:42.218Z,9.79
2019-04-04T11:45:31.048Z,9.86
2019-04-04T11:48:19.870Z,9.97
2019-04-04T11:51:08.698Z,9.86
2019-04-04T11:53:57.519Z,9.86
2019-04-04T11:56:46.361Z,9.85
2019-04-04T11:59:35.168Z,9.65
2019-04-04T12:05:19.727Z,9.81
2019-04-04T12:08:01.232Z,9.67
2019-04-04T12:10:50.146Z,9.60
2019-04-04T12:13:39.014Z,9.43
2019-04-04T12:16:27.839Z,9.53
2019-04-04T12:19:16.691Z,9.57
2019-04-04T12:22:05.529Z,9.52
2019-04-04T12:24:54.368Z,9.67
2019-04-04T12:27:43.187Z,9.87
2019-04-04T12:30:32.048Z,9.65
2019-04-04T12:33:20.872Z,9.44
2019-04-04T12:36:09.790Z,9.53
2019-04-04T12:38:58.605Z,9.51
2019-04-04T12:41:47.464Z,9.38
2019-04-04T12:44:36.314Z,9.52
2019-04-04T12:47:25.148Z,9.56
2019-04-04T12:50:14.216Z,9.57
2019-04-04T12:53:03.055Z,9.53
2019-04-04T12:55:54.061Z,9.56
2019-04-04T12:58:42.465Z,9.08
2019-04-04T13:01:31.297Z,9.24
2019-04-04T13:04:30.656Z,9.06
2019-04-04T13:07:04.047Z,9.09
2019-04-04T13:09:52.890Z,8.77
2019-04-04T13:12:41.711Z,8.65
2019-04-04T13:15:30.662Z,8.48
2019-04-04T13:18:19.536Z,8.37
2019-04-04T13:21:08.502Z,8.30
2019-04-04T13:23:57.327Z,8.60
2019-04-04T13:26:46.265Z,8.71
2019-04-04T13:29:35.091Z,8.65
2019-04-04T13:32:24.119Z,8.76
2019-04-04T13:35:13.001Z,8.93
2019-04-04T13:38:01.853Z,9.30
2019-04-04T13:40:50.759Z,9.43
2019-04-04T13:43:39.590Z,9.31
2019-04-04T13:46:29.385Z,9.16
2019-04-04T13:49:19.001Z,9.18
2019-04-04T13:52:07.868Z,9.44
2019-04-04T13:54:56.690Z,9.41
2019-04-04T13:58:04.643Z,9.22
2019-04-04T14:01:12.553Z,8.86
2019-04-04T14:04:01.485Z,9.34
2019-04-04T14:06:43.353Z,9.25
2019-04-04T14:09:32.291Z,9.17
2019-04-04T14:12:21.117Z,8.94
2019-04-04T14:21:21.497Z,8.84
2019-04-04T14:24:13.772Z,8.94
2019-04-04T14:27:00.945Z,8.90
2019-04-04T14:29:49.822Z,8.81
2019-04-04T14:32:38.689Z,8.69
2019-04-04T14:35:27.577Z,8.64
2019-04-04T14:38:16.425Z,8.50
2019-04-04T14:41:11.018Z,8.30
2019-04-04T14:43:56.019Z,8.08
2019-04-04T14:46:45.611Z,8.13
2019-04-04T14:49:35.396Z,7.94
2019-04-04T14:52:24.359Z,7.94
2019-04-04T14:55:13.299Z,7.84
2019-04-04T14:58:02.152Z,7.80
2019-04-04T15:00:51.009Z,7.82
2019-04-04T15:03:42.114Z,7.73
2019-04-04T15:06:30.459Z,7.82
2019-04-04T15:09:12.103Z,7.78
2019-04-04T15:12:00.936Z,7.86
2019-04-04T15:14:49.803Z,7.90
2019-04-04T15:17:38.734Z,7.68
2019-04-04T15:20:27.927Z,7.69
2019-04-04T15:23:16.739Z,7.84
2019-04-04T15:26:05.899Z,7.91
2019-04-04T15:28:54.730Z,8.05
2019-04-04T15:31:43.570Z,7.93
2019-04-04T15:34:32.828Z,7.87
2019-04-04T15:37:21.711Z,7.96
2019-04-04T15:40:10.793Z,7.92
2019-04-04T15:42:59.651Z,7.73
2019-04-04T15:45:48.471Z,7.63
2019-04-04T15:48:37.327Z,7.70
2019-04-04T15:51:26.225Z,7.77
2019-04-04T15:54:15.090Z,7.91
2019-04-04T15:57:04.050Z,7.75
2019-04-04T15:59:52.899Z,7.73
2019-04-04T16:02:41.781Z,7.77
2019-04-04T16:05:30.560Z,7.79
2019-04-04T16:08:12.670Z,7.67
2019-04-04T16:11:01.526Z,7.98
2019-04-04T16:13:50.361Z,7.83
2019-04-04T16:16:39.251Z,7.67
2019-04-04T16:19:28.110Z,7.72
2019-04-04T16:22:16.929Z,7.88
2019-04-04T16:25:26.654Z,7.73
2019-04-04T16:28:15.459Z,7.71
2019-04-04T16:31:04.759Z,7.81
2019-04-04T16:33:53.572Z,7.63
2019-04-04T16:36:42.494Z,7.65
2019-04-04T16:39:31.417Z,7.74
2019-04-04T16:42:20.247Z,7.59
2019-04-04T16:45:09.168Z,7.64
2019-04-04T16:47:57.999Z,7.60
2019-04-04T16:50:46.882Z,7.65
2019-04-04T16:53:35.805Z,7.47
2019-04-04T16:56:24.649Z,7.41
2019-04-04T16:59:13.517Z,7.53
2019-04-04T17:02:02.331Z,7.59
2019-04-04T17:04:51.273Z,7.49
2019-04-04T17:07:40.107Z,7.45
2019-04-04T17:10:49.945Z,7.42
2019-04-04T17:13:38.763Z,7.39
2019-04-04T17:16:27.597Z,7.47
2019-04-04T17:19:16.429Z,7.48
2019-04-04T17:22:05.313Z,7.44
2019-04-04T17:25:01.428Z,7.50
2019-04-04T17:27:50.391Z,7.72
2019-04-04T17:30:39.278Z,7.83
2019-04-04T17:33:28.737Z,7.64
2019-04-04T17:36:21.265Z,7.67
2019-04-04T17:39:09.289Z,7.53
2019-04-04T17:41:58.505Z,7.46
2019-04-04T17:44:49.063Z,7.44
2019-04-04T17:47:39.792Z,7.53
2019-04-04T17:50:30.169Z,7.57
2019-04-04T17:53:20.568Z,7.54
2019-04-04T17:56:09.792Z,7.50
2019-04-04T17:58:59.998Z,7.39
2019-04-04T18:01:48.900Z,7.41
2019-04-04T18:04:47.840Z,7.35
2019-04-04T18:07:28.372Z,7.25
2019-04-04T18:10:10.451Z,7.20
2019-04-04T18:12:59.280Z,7.18
2019-04-04T18:15:48.134Z,7.25
2019-04-04T18:18:36.948Z,7.21
2019-04-04T18:21:25.803Z,7.17
2019-04-04T18:24:27.111Z,7.14
2019-04-04T18:27:05.235Z,7.18
2019-04-04T18:29:54.497Z,7.24
2019-04-04T18:32:43.412Z,7.23
2019-04-04T18:35:32.489Z,7.13
2019-04-04T18:38:42.481Z,7.03
2019-04-04T18:41:32.606Z,6.98
2019-04-04T18:44:22.108Z,6.88
2019-04-04T18:47:10.988Z,6.71
2019-04-04T18:49:59.832Z,6.52
2019-04-04T18:52:48.663Z,6.37
2019-04-04T18:58:52.145Z,6.22
2019-04-04T19:01:40.986Z,6.08
2019-04-04T19:04:29.833Z,5.94
2019-04-04T19:07:18.742Z,5.82
2019-04-04T19:10:00.504Z,5.77
2019-04-04T19:12:49.388Z,5.75
2019-04-04T19:15:38.304Z,5.66
2019-04-04T19:18:27.284Z,5.70
2019-04-04T19:21:16.596Z,5.65
2019-04-04T19:24:05.540Z,5.66
2019-04-04T19:26:54.450Z,5.67
2019-04-04T19:29:43.296Z,5.64
2019-04-04T19:32:32.291Z,5.65
2019-04-04T19:35:21.209Z,5.65
2019-04-04T19:38:10.057Z,5.67
2019-04-04T19:40:58.914Z,5.68
2019-04-04T19:43:47.731Z,5.69
2019-04-04T19:46:37.489Z,5.67
2019-04-04T19:49:27.311Z,5.69
2019-04-04T19:52:16.133Z,5.74
2019-04-04T19:58:33.446Z,5.69
2019-04-04T20:01:22.279Z,5.67
2019-04-04T20:04:11.124Z,5.91
2019-04-04T20:06:59.950Z,5.90
2019-04-04T20:09:41.925Z,5.77
2019-04-04T20:12:30.779Z,5.74
2019-04-04T20:15:19.631Z,5.66
2019-04-04T20:18:08.582Z,5.63
2019-04-04T20:20:57.455Z,5.61
2019-04-04T20:23:46.284Z,5.56
2019-04-04T20:26:35.123Z,5.51
2019-04-04T20:29:23.976Z,5.52
2019-04-04T20:32:12.830Z,5.55
2019-04-04T20:35:01.676Z,5.55
2019-04-04T20:37:50.574Z,5.63
2019-04-04T20:40:39.434Z,5.64
2019-04-04T20:43:28.263Z,5.60
2019-04-04T20:46:17.110Z,5.63
2019-04-04T20:49:06.117Z,5.67
2019-04-04T20:51:54.957Z,5.69
2019-04-04T20:54:43.826Z,5.68
2019-04-04T20:57:32.658Z,5.66
2019-04-04T21:00:21.594Z,5.63
2019-04-04T21:03:10.518Z,5.69
2019-04-04T21:05:59.453Z,5.71
2019-04-04T21:08:48.279Z,5.77
2019-04-04T21:11:29.941Z,5.75
2019-04-04T21:14:18.762Z,5.71
2019-04-04T21:17:07.599Z,5.71
2019-04-04T21:23:11.737Z,5.72
2019-04-04T21:26:00.588Z,5.65
2019-04-04T21:28:49.421Z,5.65
2019-04-04T21:31:38.248Z,5.69
2019-04-04T21:34:27.125Z,5.67
2019-04-04T21:37:15.928Z,5.66
2019-04-04T21:43:19.735Z,5.66
2019-04-04T21:46:08.580Z,5.66
2019-04-04T21:48:57.454Z,5.65
2019-04-04T21:51:46.272Z,5.63
2019-04-04T21:54:35.304Z,5.65
2019-04-04T21:57:24.129Z,5.56
2019-04-04T22:00:13.392Z,5.52
2019-04-04T22:03:02.301Z,5.50
2019-04-04T22:05:51.218Z,5.44
2019-04-04T22:08:40.039Z,5.34
2019-04-04T22:11:22.177Z,5.29
2019-04-04T22:14:21.015Z,5.23
2019-04-04T22:17:01.564Z,5.21
2019-04-04T22:19:50.398Z,5.16
2019-04-04T22:22:39.250Z,5.13
2019-04-04T22:25:28.141Z,5.11
2019-04-04T22:28:17.035Z,5.08
2019-04-04T22:31:05.963Z,5.09
2019-04-04T22:33:54.809Z,5.06
2019-04-04T22:36:43.640Z,5.02
2019-04-04T22:39:32.480Z,5.03
2019-04-04T22:42:21.447Z,5.02
2019-04-04T22:48:25.371Z,4.99
2019-04-04T22:51:14.193Z,4.94
2019-04-04T22:54:03.057Z,4.85
2019-04-04T22:56:51.905Z,4.77
2019-04-04T22:59:40.755Z,4.71
2019-04-04T23:02:29.619Z,4.65
2019-04-04T23:05:18.428Z,4.72
2019-04-04T23:08:07.698Z,4.73
2019-04-04T23:10:51.284Z,4.79
2019-04-04T23:13:40.113Z,4.81
2019-04-04T23:16:28.934Z,4.81
2019-04-04T23:19:17.777Z,4.83
2019-04-04T23:22:06.628Z,4.74
2019-04-04T23:24:55.464Z,4.71
2019-04-04T23:27:44.305Z,4.72
2019-04-04T23:30:33.126Z,4.78
2019-04-04T23:33:21.963Z,4.87
2019-04-04T23:36:10.795Z,4.94
2019-04-04T23:42:14.893Z,5.06
2019-04-04T23:48:32.086Z,5.13
2019-04-04T23:51:20.931Z,5.21
2019-04-04T23:54:09.773Z,5.24
2019-04-04T23:56:58.593Z,5.31
2019-04-04T23:59:47.452Z,5.31
